sensor_id;sensor_type;location;lat;lon;timestamp;pressure;altitude;pressure_sealevel;temperature;humidity
38612;BME280;24368;52.156;20.788;2024-02-04T00:11:20;100041.77;;;6.65;92.55
38612;BME280;24368;52.156;20.788;2024-02-04T00:16:23;100041.52;;;6.65;92.63
38612;BME280;24368;52.156;20.788;2024-02-04T00:21:25;100035.98;;;6.54;92.94
38612;BME280;24368;52.156;20.788;2024-02-04T00:26:27;100028.34;;;6.48;93.85
38612;BME280;24368;52.156;20.788;2024-02-04T00:31:29;100018.89;;;6.49;94.30
38612;BME280;24368;52.156;20.788;2024-02-04T00:36:32;100015.98;;;6.44;95.35
38612;BME280;24368;52.156;20.788;2024-02-04T00:41:34;100015.12;;;6.39;96.35
38612;BME280;24368;52.156;20.788;2024-02-04T00:46:36;100022.14;;;6.32;96.98
38612;BME280;24368;52.156;20.788;2024-02-04T06:20:10;100049.61;;;4.90;96.94
38612;BME280;24368;52.156;20.788;2024-02-04T06:25:12;100049.00;;;4.89;96.83
38612;BME280;24368;52.156;20.788;2024-02-04T06:30:14;100043.13;;;4.88;97.06
38612;BME280;24368;52.156;20.788;2024-02-04T06:35:15;100045.02;;;4.86;97.39
38612;BME280;24368;52.156;20.788;2024-02-04T06:40:17;100049.16;;;4.81;97.66
38612;BME280;24368;52.156;20.788;2024-02-04T06:45:18;100047.88;;;4.86;97.33
38612;BME280;24368;52.156;20.788;2024-02-04T06:50:20;100053.57;;;4.84;97.18
38612;BME280;24368;52.156;20.788;2024-02-04T06:55:22;100058.45;;;4.93;96.33
38612;BME280;24368;52.156;20.788;2024-02-04T07:00:24;100070.05;;;4.93;95.93
38612;BME280;24368;52.156;20.788;2024-02-04T07:05:26;100069.67;;;5.03;95.37
38612;BME280;24368;52.156;20.788;2024-02-04T07:10:29;100062.63;;;5.07;95.03
38612;BME280;24368;52.156;20.788;2024-02-04T07:15:30;100067.67;;;5.08;94.80
38612;BME280;24368;52.156;20.788;2024-02-04T07:20:31;100062.80;;;5.00;94.96
38612;BME280;24368;52.156;20.788;2024-02-04T07:25:33;100074.11;;;4.97;95.22
38612;BME280;24368;52.156;20.788;2024-02-04T07:30:35;100068.65;;;4.92;95.36
38612;BME280;24368;52.156;20.788;2024-02-04T07:35:36;100067.19;;;4.90;95.55
38612;BME280;24368;52.156;20.788;2024-02-04T07:40:38;100068.75;;;4.90;95.87
38612;BME280;24368;52.156;20.788;2024-02-04T07:45:41;100066.26;;;4.96;95.70
38612;BME280;24368;52.156;20.788;2024-02-04T07:50:43;100069.71;;;5.11;95.54
38612;BME280;24368;52.156;20.788;2024-02-04T07:55:44;100088.48;;;5.17;95.29
38612;BME280;24368;52.156;20.788;2024-02-04T08:00:46;100086.44;;;5.17;95.21
38612;BME280;24368;52.156;20.788;2024-02-04T08:05:48;100072.61;;;5.11;95.13
38612;BME280;24368;52.156;20.788;2024-02-04T08:10:49;100078.06;;;5.14;95.41
38612;BME280;24368;52.156;20.788;2024-02-04T08:15:51;100066.25;;;5.15;95.07
38612;BME280;24368;52.156;20.788;2024-02-04T08:20:52;100059.14;;;5.12;94.67
38612;BME280;24368;52.156;20.788;2024-02-04T08:25:54;100057.52;;;5.20;94.26
38612;BME280;24368;52.156;20.788;2024-02-04T08:30:55;100065.99;;;5.23;94.04
38612;BME280;24368;52.156;20.788;2024-02-04T08:35:58;100065.89;;;5.21;93.61
38612;BME280;24368;52.156;20.788;2024-02-04T08:40:59;100064.52;;;5.25;93.56
38612;BME280;24368;52.156;20.788;2024-02-04T08:46:00;100080.37;;;5.27;92.75
38612;BME280;24368;52.156;20.788;2024-02-04T08:51:01;100083.02;;;5.24;91.98
38612;BME280;24368;52.156;20.788;2024-02-04T08:56:03;100081.12;;;5.28;91.03
38612;BME280;24368;52.156;20.788;2024-02-04T09:01:06;100083.80;;;5.27;91.32
38612;BME280;24368;52.156;20.788;2024-02-04T09:06:08;100076.52;;;5.30;90.99
38612;BME280;24368;52.156;20.788;2024-02-04T09:11:09;100079.29;;;5.35;91.14
38612;BME280;24368;52.156;20.788;2024-02-04T09:16:10;100083.20;;;5.36;90.50
38612;BME280;24368;52.156;20.788;2024-02-04T09:21:12;100084.64;;;5.37;90.53
38612;BME280;24368;52.156;20.788;2024-02-04T09:26:14;100080.52;;;5.40;90.21
38612;BME280;24368;52.156;20.788;2024-02-04T09:31:16;100090.87;;;5.41;90.44
38612;BME280;24368;52.156;20.788;2024-02-04T09:36:18;100079.40;;;5.50;89.59
38612;BME280;24368;52.156;20.788;2024-02-04T09:41:19;100082.52;;;5.60;89.63
38612;BME280;24368;52.156;20.788;2024-02-04T09:46:21;100082.02;;;5.64;89.72
38612;BME280;24368;52.156;20.788;2024-02-04T09:51:25;100067.02;;;5.61;89.49
38612;BME280;24368;52.156;20.788;2024-02-04T09:56:28;100067.91;;;5.62;89.61
38612;BME280;24368;52.156;20.788;2024-02-04T10:01:31;100063.38;;;5.59;90.00
38612;BME280;24368;52.156;20.788;2024-02-04T10:06:35;100053.38;;;5.55;90.38
38612;BME280;24368;52.156;20.788;2024-02-04T10:11:36;100035.08;;;5.54;90.63
38612;BME280;24368;52.156;20.788;2024-02-04T10:16:37;100034.28;;;5.53;90.66
38612;BME280;24368;52.156;20.788;2024-02-04T10:21:39;100031.20;;;5.61;90.83
38612;BME280;24368;52.156;20.788;2024-02-04T10:26:41;100021.39;;;5.69;90.68
38612;BME280;24368;52.156;20.788;2024-02-04T10:31:44;100012.90;;;5.71;90.62
38612;BME280;24368;52.156;20.788;2024-02-04T10:36:45;99998.25;;;5.78;90.54
38612;BME280;24368;52.156;20.788;2024-02-04T10:41:51;99981.54;;;5.76;90.70
38612;BME280;24368;52.156;20.788;2024-02-04T10:46:55;99980.85;;;5.62;92.07
38612;BME280;24368;52.156;20.788;2024-02-04T10:52:06;99969.86;;;5.59;92.47
38612;BME280;24368;52.156;20.788;2024-02-04T10:57:13;99953.14;;;5.61;92.54
38612;BME280;24368;52.156;20.788;2024-02-04T11:02:16;99945.80;;;5.66;92.61
38612;BME280;24368;52.156;20.788;2024-02-04T11:07:19;99941.30;;;5.64;92.72
38612;BME280;24368;52.156;20.788;2024-02-04T11:12:22;99937.85;;;5.62;93.48
38612;BME280;24368;52.156;20.788;2024-02-04T11:27:57;99928.27;;;5.69;93.77
38612;BME280;24368;52.156;20.788;2024-02-04T11:33:00;99919.77;;;5.70;94.33
38612;BME280;24368;52.156;20.788;2024-02-04T11:38:05;99919.07;;;5.69;95.39
38612;BME280;24368;52.156;20.788;2024-02-04T11:43:12;99913.34;;;5.62;96.19
38612;BME280;24368;52.156;20.788;2024-02-04T11:48:15;99912.88;;;5.63;96.71
38612;BME280;24368;52.156;20.788;2024-02-04T11:53:18;99897.77;;;5.65;97.10
38612;BME280;24368;52.156;20.788;2024-02-04T11:58:19;99888.44;;;5.71;97.09
38612;BME280;24368;52.156;20.788;2024-02-04T12:03:31;99886.76;;;5.74;96.61
38612;BME280;24368;52.156;20.788;2024-02-04T12:08:33;99872.79;;;5.81;97.15
38612;BME280;24368;52.156;20.788;2024-02-04T12:13:36;99865.49;;;5.81;97.41
38612;BME280;24368;52.156;20.788;2024-02-04T12:18:50;99854.41;;;5.84;97.64
38612;BME280;24368;52.156;20.788;2024-02-04T12:23:52;99840.71;;;5.85;97.58
38612;BME280;24368;52.156;20.788;2024-02-04T12:28:53;99827.39;;;5.92;97.22
38612;BME280;24368;52.156;20.788;2024-02-04T12:33:56;99835.79;;;5.93;96.77
38612;BME280;24368;52.156;20.788;2024-02-04T12:39:02;99835.27;;;5.94;96.54
38612;BME280;24368;52.156;20.788;2024-02-04T12:44:11;99830.26;;;6.05;95.74
38612;BME280;24368;52.156;20.788;2024-02-04T12:49:19;99824.08;;;6.09;95.41
38612;BME280;24368;52.156;20.788;2024-02-04T12:54:22;99819.20;;;6.04;95.06
38612;BME280;24368;52.156;20.788;2024-02-04T12:59:27;99816.56;;;5.95;95.74
38612;BME280;24368;52.156;20.788;2024-02-04T13:04:41;99801.02;;;5.81;97.24
38612;BME280;24368;52.156;20.788;2024-02-04T13:10:04;99804.19;;;5.74;98.67
38612;BME280;24368;52.156;20.788;2024-02-04T13:15:05;99796.19;;;5.77;98.91
38612;BME280;24368;52.156;20.788;2024-02-04T13:20:07;99792.71;;;5.72;99.30
38612;BME280;24368;52.156;20.788;2024-02-04T13:25:10;99788.58;;;5.67;99.70
38612;BME280;24368;52.156;20.788;2024-02-04T13:30:12;99782.40;;;5.67;100.00
38612;BME280;24368;52.156;20.788;2024-02-04T13:35:14;99777.69;;;5.65;99.83
38612;BME280;24368;52.156;20.788;2024-02-04T13:40:18;99766.77;;;5.72;99.07
38612;BME280;24368;52.156;20.788;2024-02-04T13:45:20;99766.48;;;5.77;98.60
38612;BME280;24368;52.156;20.788;2024-02-04T14:00:53;99753.64;;;6.07;94.58
38612;BME280;24368;52.156;20.788;2024-02-04T14:05:55;99740.58;;;6.12;92.91
38612;BME280;24368;52.156;20.788;2024-02-04T14:10:56;99723.21;;;6.14;92.38
38612;BME280;24368;52.156;20.788;2024-02-04T14:15:58;99721.58;;;6.13;91.73
38612;BME280;24368;52.156;20.788;2024-02-04T14:21:00;99724.48;;;6.11;91.68
38612;BME280;24368;52.156;20.788;2024-02-04T14:26:01;99730.01;;;6.14;91.41
38612;BME280;24368;52.156;20.788;2024-02-04T14:31:04;99727.74;;;6.19;90.55
38612;BME280;24368;52.156;20.788;2024-02-04T14:36:08;99724.02;;;6.21;90.09
38612;BME280;24368;52.156;20.788;2024-02-04T14:41:09;99707.22;;;6.25;89.35
38612;BME280;24368;52.156;20.788;2024-02-04T14:46:10;99700.34;;;6.25;89.23
38612;BME280;24368;52.156;20.788;2024-02-04T14:51:12;99690.91;;;6.24;89.15
38612;BME280;24368;52.156;20.788;2024-02-04T14:56:13;99687.05;;;6.24;89.12
38612;BME280;24368;52.156;20.788;2024-02-04T15:01:14;99672.95;;;6.26;88.94
38612;BME280;24368;52.156;20.788;2024-02-04T15:06:16;99667.26;;;6.27;89.24
38612;BME280;24368;52.156;20.788;2024-02-04T15:11:17;99660.71;;;6.25;89.14
38612;BME280;24368;52.156;20.788;2024-02-04T15:16:19;99667.13;;;6.26;88.83
38612;BME280;24368;52.156;20.788;2024-02-04T15:21:21;99653.83;;;6.26;88.88
38612;BME280;24368;52.156;20.788;2024-02-04T15:26:25;99657.71;;;6.29;88.72
38612;BME280;24368;52.156;20.788;2024-02-04T15:31:28;99655.68;;;6.32;88.32
38612;BME280;24368;52.156;20.788;2024-02-04T15:36:29;99648.73;;;6.32;88.31
38612;BME280;24368;52.156;20.788;2024-02-04T15:41:33;99655.14;;;6.33;88.12
38612;BME280;24368;52.156;20.788;2024-02-04T15:46:36;99651.11;;;6.36;87.85
38612;BME280;24368;52.156;20.788;2024-02-04T15:51:39;99638.09;;;6.35;87.95
38612;BME280;24368;52.156;20.788;2024-02-04T15:56:42;99636.12;;;6.35;88.00
38612;BME280;24368;52.156;20.788;2024-02-04T16:01:47;99638.80;;;6.42;88.09
38612;BME280;24368;52.156;20.788;2024-02-04T16:06:50;99633.16;;;6.43;88.08
38612;BME280;24368;52.156;20.788;2024-02-04T16:12:04;99632.02;;;6.39;88.44
38612;BME280;24368;52.156;20.788;2024-02-04T16:17:07;99643.33;;;6.34;88.73
38612;BME280;24368;52.156;20.788;2024-02-04T16:22:14;99647.04;;;6.32;88.91
38612;BME280;24368;52.156;20.788;2024-02-04T16:27:16;99639.05;;;6.29;89.26
38612;BME280;24368;52.156;20.788;2024-02-04T16:32:18;99631.20;;;6.27;89.57
38612;BME280;24368;52.156;20.788;2024-02-04T16:37:19;99627.21;;;6.27;89.64
38612;BME280;24368;52.156;20.788;2024-02-04T16:42:20;99628.94;;;6.28;89.50
38612;BME280;24368;52.156;20.788;2024-02-04T16:47:28;99622.30;;;6.26;89.77
38612;BME280;24368;52.156;20.788;2024-02-04T16:52:32;99617.02;;;6.24;89.81
38612;BME280;24368;52.156;20.788;2024-02-04T16:57:34;99613.85;;;6.21;90.07
38612;BME280;24368;52.156;20.788;2024-02-04T17:02:38;99610.61;;;6.18;90.23
38612;BME280;24368;52.156;20.788;2024-02-04T17:07:41;99615.44;;;6.17;90.11
38612;BME280;24368;52.156;20.788;2024-02-04T17:12:43;99606.30;;;6.18;90.14
38612;BME280;24368;52.156;20.788;2024-02-04T17:17:48;99596.52;;;6.20;89.99
38612;BME280;24368;52.156;20.788;2024-02-04T17:22:58;99591.77;;;6.23;89.80
38612;BME280;24368;52.156;20.788;2024-02-04T17:38:23;99591.77;;;6.23;89.88
38612;BME280;24368;52.156;20.788;2024-02-04T17:43:27;99588.27;;;6.24;89.60
38612;BME280;24368;52.156;20.788;2024-02-04T17:48:28;99580.39;;;6.22;89.79
38612;BME280;24368;52.156;20.788;2024-02-04T17:53:32;99580.20;;;6.23;89.56
38612;BME280;24368;52.156;20.788;2024-02-04T17:58:33;99574.92;;;6.27;89.16
38612;BME280;24368;52.156;20.788;2024-02-04T18:03:38;99576.20;;;6.27;89.02
38612;BME280;24368;52.156;20.788;2024-02-04T18:08:40;99568.16;;;6.25;89.10
38612;BME280;24368;52.156;20.788;2024-02-04T18:13:43;99561.54;;;6.28;88.83
38612;BME280;24368;52.156;20.788;2024-02-04T18:18:44;99559.52;;;6.27;88.76
38612;BME280;24368;52.156;20.788;2024-02-04T18:23:47;99552.23;;;6.24;88.78
38612;BME280;24368;52.156;20.788;2024-02-04T18:28:49;99551.35;;;6.28;88.35
38612;BME280;24368;52.156;20.788;2024-02-04T18:33:52;99553.27;;;6.30;88.00
38612;BME280;24368;52.156;20.788;2024-02-04T18:38:56;99547.93;;;6.30;87.93
38612;BME280;24368;52.156;20.788;2024-02-04T18:43:59;99555.30;;;6.30;88.09
38612;BME280;24368;52.156;20.788;2024-02-04T18:49:02;99553.52;;;6.32;87.86
38612;BME280;24368;52.156;20.788;2024-02-04T18:54:04;99552.73;;;6.27;88.26
38612;BME280;24368;52.156;20.788;2024-02-04T18:59:06;99553.75;;;6.27;88.25
38612;BME280;24368;52.156;20.788;2024-02-04T19:04:09;99549.86;;;6.29;88.08
38612;BME280;24368;52.156;20.788;2024-02-04T19:09:12;99544.98;;;6.28;88.14
38612;BME280;24368;52.156;20.788;2024-02-04T19:14:15;99536.27;;;6.29;87.85
38612;BME280;24368;52.156;20.788;2024-02-04T19:19:21;99535.63;;;6.32;87.63
38612;BME280;24368;52.156;20.788;2024-02-04T19:24:23;99529.35;;;6.31;87.71
38612;BME280;24368;52.156;20.788;2024-02-04T19:29:26;99531.11;;;6.28;87.74
38612;BME280;24368;52.156;20.788;2024-02-04T19:34:28;99528.36;;;6.24;88.21
38612;BME280;24368;52.156;20.788;2024-02-04T19:39:31;99518.48;;;6.26;88.16
38612;BME280;24368;52.156;20.788;2024-02-04T19:44:33;99505.07;;;6.24;88.28
38612;BME280;24368;52.156;20.788;2024-02-04T19:49:36;99499.11;;;6.22;88.66
38612;BME280;24368;52.156;20.788;2024-02-04T19:54:44;99500.39;;;6.23;88.51
38612;BME280;24368;52.156;20.788;2024-02-04T19:59:46;99506.25;;;6.30;87.95
38612;BME280;24368;52.156;20.788;2024-02-04T20:04:48;99499.84;;;6.34;87.52
38612;BME280;24368;52.156;20.788;2024-02-04T20:09:50;99504.36;;;6.34;87.58
38612;BME280;24368;52.156;20.788;2024-02-04T20:14:53;99492.50;;;6.36;87.46
38612;BME280;24368;52.156;20.788;2024-02-04T20:19:55;99480.02;;;6.36;87.52
38612;BME280;24368;52.156;20.788;2024-02-04T20:24:59;99475.05;;;6.40;87.25
38612;BME280;24368;52.156;20.788;2024-02-04T20:30:02;99477.83;;;6.40;87.27
38612;BME280;24368;52.156;20.788;2024-02-04T20:35:05;99485.54;;;6.40;87.67
38612;BME280;24368;52.156;20.788;2024-02-04T20:46:40;99474.65;;;6.43;87.92
38612;BME280;24368;52.156;20.788;2024-02-04T20:51:43;99482.70;;;6.41;88.16
38612;BME280;24368;52.156;20.788;2024-02-04T20:56:45;99476.08;;;6.39;88.55
38612;BME280;24368;52.156;20.788;2024-02-04T21:01:48;99478.30;;;6.34;89.07
38612;BME280;24368;52.156;20.788;2024-02-04T21:06:51;99476.19;;;6.34;89.23
38612;BME280;24368;52.156;20.788;2024-02-04T21:11:53;99469.16;;;6.35;89.25
38612;BME280;24368;52.156;20.788;2024-02-04T21:16:55;99461.80;;;6.32;89.50
38612;BME280;24368;52.156;20.788;2024-02-04T21:21:57;99462.73;;;6.29;89.85
38612;BME280;24368;52.156;20.788;2024-02-04T21:26:59;99458.83;;;6.30;89.77
38612;BME280;24368;52.156;20.788;2024-02-04T21:32:03;99453.72;;;6.30;89.99
38612;BME280;24368;52.156;20.788;2024-02-04T21:37:05;99448.80;;;6.28;89.83
38612;BME280;24368;52.156;20.788;2024-02-04T21:42:07;99437.31;;;6.27;90.16
38612;BME280;24368;52.156;20.788;2024-02-04T21:47:10;99426.36;;;6.29;89.92
38612;BME280;24368;52.156;20.788;2024-02-04T21:52:13;99428.91;;;6.31;89.81
38612;BME280;24368;52.156;20.788;2024-02-04T21:57:16;99419.84;;;6.32;89.51
38612;BME280;24368;52.156;20.788;2024-02-04T22:02:18;99416.20;;;6.33;89.53
38612;BME280;24368;52.156;20.788;2024-02-04T22:07:20;99412.64;;;6.36;89.33
38612;BME280;24368;52.156;20.788;2024-02-04T22:12:22;99414.23;;;6.37;89.13
38612;BME280;24368;52.156;20.788;2024-02-04T22:17:25;99417.02;;;6.42;88.79
38612;BME280;24368;52.156;20.788;2024-02-04T22:22:31;99403.05;;;6.39;89.01
38612;BME280;24368;52.156;20.788;2024-02-04T22:27:34;99399.81;;;6.38;89.37
38612;BME280;24368;52.156;20.788;2024-02-04T22:32:36;99392.98;;;6.37;89.71
38612;BME280;24368;52.156;20.788;2024-02-04T22:37:38;99392.95;;;6.33;90.44
38612;BME280;24368;52.156;20.788;2024-02-04T22:42:41;99405.41;;;6.24;91.82
38612;BME280;24368;52.156;20.788;2024-02-04T22:47:44;99399.60;;;6.09;93.71
38612;BME280;24368;52.156;20.788;2024-02-04T22:52:46;99401.36;;;5.98;95.55
38612;BME280;24368;52.156;20.788;2024-02-04T22:57:49;99398.98;;;5.87;97.15
38612;BME280;24368;52.156;20.788;2024-02-04T23:02:51;99390.52;;;5.83;97.94
38612;BME280;24368;52.156;20.788;2024-02-04T23:07:53;99386.85;;;5.82;98.31
38612;BME280;24368;52.156;20.788;2024-02-04T23:12:59;99382.12;;;5.79;98.75
38612;BME280;24368;52.156;20.788;2024-02-04T23:18:01;99385.27;;;5.73;99.53
38612;BME280;24368;52.156;20.788;2024-02-04T23:23:03;99379.30;;;5.67;100.00
38612;BME280;24368;52.156;20.788;2024-02-04T23:28:05;99369.63;;;5.62;100.00
38612;BME280;24368;52.156;20.788;2024-02-04T23:33:08;99368.86;;;5.59;100.00
38612;BME280;24368;52.156;20.788;2024-02-04T23:38:13;99363.63;;;5.60;100.00
38612;BME280;24368;52.156;20.788;2024-02-04T23:43:16;99364.85;;;5.59;100.00
38612;BME280;24368;52.156;20.788;2024-02-04T23:48:18;99357.81;;;5.58;100.00
38612;BME280;24368;52.156;20.788;2024-02-04T23:53:20;99358.01;;;5.57;100.00
38612;BME280;24368;52.156;20.788;2024-02-04T23:58:23;99348.48;;;5.56;100.00
